Time;durP1;ratioP1;P1;durP2;ratioP2;P2;SDS_P1;SDS_P2;PMS_P1;PMS_P2;Temp;Humidity;BMP_temperature;BMP_pressure;BME280_temperature;BME280_humidity;BME280_pressure;Samples;Min_cycle;Max_cycle;Signal;HPM_P1;HPM_P2
2023/05/19 00:00:56;;;;;;;7.80;1.88;;;9.80;99.90;;;;;;4992158;28;20037;-49
2023/05/19 00:03:22;;;;;;;3.00;1.65;;;9.80;99.90;;;;;;4992610;28;20026;-48
2023/05/19 00:05:52;;;;;;;2.45;1.95;;;9.80;99.90;;;;;;4992177;28;20038;-45
2023/05/19 00:08:19;;;;;;;4.93;2.58;;;9.80;99.90;;;;;;4992233;28;20038;-47
2023/05/19 00:10:45;;;;;;;2.25;1.77;;;9.80;99.90;;;;;;4992230;28;20094;-43
2023/05/19 00:13:11;;;;;;;5.13;2.58;;;9.80;99.90;;;;;;4992097;28;20037;-51
2023/05/19 00:15:37;;;;;;;3.90;1.95;;;9.80;99.90;;;;;;4992301;28;20035;-55
2023/05/19 00:18:03;;;;;;;7.13;2.40;;;9.90;99.90;;;;;;4992010;28;20470;-49
2023/05/19 00:20:28;;;;;;;3.20;1.52;;;9.80;99.90;;;;;;4992011;28;20073;-45
2023/05/19 00:22:54;;;;;;;2.65;1.85;;;9.90;99.90;;;;;;4991782;28;20431;-42
2023/05/19 00:25:20;;;;;;;2.60;1.67;;;9.80;99.90;;;;;;4992376;28;20036;-43
2023/05/19 00:27:45;;;;;;;2.50;1.67;;;9.80;99.90;;;;;;4991985;28;20014;-42
2023/05/19 00:30:12;;;;;;;3.58;2.38;;;9.80;99.90;;;;;;4992067;28;20363;-52
2023/05/19 00:32:37;;;;;;;6.03;1.50;;;9.80;99.90;;;;;;4991979;28;20027;-42
2023/05/19 00:35:03;;;;;;;5.57;1.95;;;9.80;99.90;;;;;;4991721;28;20082;-44
2023/05/19 00:37:29;;;;;;;5.32;1.50;;;9.80;99.90;;;;;;4991662;28;20061;-51
2023/05/19 00:39:54;;;;;;;3.58;2.15;;;9.80;99.90;;;;;;4991667;28;20030;-42
2023/05/19 00:42:20;;;;;;;1.98;1.42;;;9.80;99.90;;;;;;4991489;28;20146;-46
2023/05/19 00:44:46;;;;;;;3.30;1.90;;;9.70;99.90;;;;;;4991646;28;20034;-40
2023/05/19 00:47:11;;;;;;;2.45;1.52;;;9.70;99.90;;;;;;4991622;28;20034;-43
2023/05/19 00:49:37;;;;;;;2.60;1.88;;;9.60;99.90;;;;;;4991661;28;20109;-44
2023/05/19 00:52:05;;;;;;;5.68;1.35;;;9.60;99.90;;;;;;4990414;28;20041;-46
2023/05/19 00:54:32;;;;;;;5.18;2.22;;;9.60;99.90;;;;;;4991493;28;20023;-48
2023/05/19 00:56:58;;;;;;;3.05;2.03;;;9.60;99.90;;;;;;4991458;28;20034;-43
2023/05/19 00:59:25;;;;;;;2.65;2.15;;;9.50;99.90;;;;;;4991452;28;20053;-44
2023/05/19 01:01:51;;;;;;;6.90;1.63;;;9.50;99.90;;;;;;4991443;28;20041;-46
2023/05/19 01:04:20;;;;;;;3.85;2.22;;;9.50;99.90;;;;;;4991350;28;20481;-44
2023/05/19 01:06:53;;;;;;;2.53;1.92;;;9.40;99.90;;;;;;4991290;28;20116;-42
2023/05/19 01:09:23;;;;;;;2.42;1.60;;;9.40;99.90;;;;;;4991471;28;20101;-45
2023/05/19 01:11:52;;;;;;;1.80;1.35;;;9.40;99.90;;;;;;4991519;28;20122;-48
2023/05/19 01:14:19;;;;;;;1.73;1.33;;;9.30;99.90;;;;;;4990003;28;20156;-50
2023/05/19 01:17:05;;;;;;;2.95;2.20;;;9.30;99.90;;;;;;4991846;28;20026;-46
2023/05/19 01:20:00;;;;;;;2.13;1.27;;;9.20;99.90;;;;;;4991241;28;20061;-48
2023/05/19 01:22:42;;;;;;;1.33;1.00;;;9.10;99.90;;;;;;4991485;28;20030;-45
2023/05/19 01:25:36;;;;;;;1.80;1.35;;;9.00;99.90;;;;;;4991309;28;20045;-47
2023/05/19 01:28:37;;;;;;;1.77;1.33;;;9.00;99.90;;;;;;4991158;28;20023;-45
2023/05/19 01:31:06;;;;;;;1.65;1.23;;;9.00;99.90;;;;;;4991036;28;20022;-46
2023/05/19 01:33:32;;;;;;;1.67;1.20;;;8.90;99.90;;;;;;4991265;28;20026;-41
2023/05/19 01:35:59;;;;;;;2.92;1.10;;;8.90;99.90;;;;;;4991176;28;20058;-48
2023/05/19 01:38:28;;;;;;;3.90;0.90;;;9.00;99.90;;;;;;4991223;28;20038;-46
2023/05/19 01:40:56;;;;;;;5.00;1.17;;;8.90;99.90;;;;;;5006262;28;20398;-45
2023/05/19 01:43:24;;;;;;;2.45;1.90;;;8.90;99.90;;;;;;4990633;28;20486;-41
2023/05/19 01:45:50;;;;;;;0.90;0.80;;;8.90;99.90;;;;;;4991130;28;20049;-52
2023/05/19 01:48:17;;;;;;;3.28;1.25;;;8.90;99.90;;;;;;4991085;28;20485;-42
2023/05/19 01:50:43;;;;;;;2.38;1.52;;;8.90;99.90;;;;;;4990926;28;20033;-45
2023/05/19 01:53:09;;;;;;;2.88;1.70;;;8.90;99.90;;;;;;4991074;28;20034;-44
2023/05/19 01:55:48;;;;;;;1.80;1.42;;;8.90;99.90;;;;;;4991030;28;20026;-48
2023/05/19 01:58:26;;;;;;;4.88;1.80;;;8.90;99.90;;;;;;4991027;28;20014;-53
2023/05/19 02:01:03;;;;;;;1.92;1.00;;;8.80;99.90;;;;;;4990563;28;20040;-50
2023/05/19 02:04:02;;;;;;;1.55;1.20;;;8.80;99.90;;;;;;4991800;28;20023;-47
2023/05/19 02:06:41;;;;;;;2.42;1.58;;;8.80;99.90;;;;;;4994748;28;20117;-41
2023/05/19 02:09:15;;;;;;;1.98;1.33;;;8.70;99.90;;;;;;4993322;28;20058;-42
2023/05/19 02:11:49;;;;;;;2.97;1.15;;;8.70;99.90;;;;;;4994594;28;20046;-50
2023/05/19 02:14:23;;;;;;;2.55;1.50;;;8.60;99.90;;;;;;4994444;28;20047;-59
2023/05/19 02:16:50;;;;;;;3.10;1.48;;;8.60;99.90;;;;;;4994520;28;20470;-51
2023/05/19 02:19:29;;;;;;;2.05;1.52;;;8.60;99.90;;;;;;4993912;28;20027;-41
2023/05/19 02:21:55;;;;;;;4.05;1.55;;;8.60;99.90;;;;;;4994284;28;20038;-41
2023/05/19 02:24:21;;;;;;;1.83;1.25;;;8.50;99.90;;;;;;5009293;28;20034;-42
2023/05/19 02:26:51;;;;;;;1.50;1.02;;;8.50;99.90;;;;;;4994613;28;20037;-40
2023/05/19 02:29:16;;;;;;;;;;;8.40;99.90;;;;;;4994485;28;20026;-40
2023/05/19 02:31:42;;;;;;;1.48;1.10;;;8.50;99.90;;;;;;4994383;28;19906;-49
2023/05/19 02:34:08;;;;;;;2.40;1.40;;;8.50;99.90;;;;;;4993964;28;20406;-45
2023/05/19 02:36:35;;;;;;;1.73;1.30;;;8.40;99.90;;;;;;4994271;28;20026;-46
2023/05/19 02:39:02;;;;;;;6.70;2.35;;;8.40;99.90;;;;;;4994045;28;20113;-45
2023/05/19 02:41:27;;;;;;;1.02;0.65;;;8.40;99.90;;;;;;4993594;28;20513;-53
2023/05/19 02:43:53;;;;;;;2.22;1.15;;;8.40;99.90;;;;;;4993931;28;20019;-53
2023/05/19 02:46:19;;;;;;;1.38;1.10;;;8.40;99.90;;;;;;4994091;28;20393;-52
2023/05/19 02:48:45;;;;;;;1.92;1.13;;;8.40;99.90;;;;;;4993723;28;20457;-56
2023/05/19 02:51:10;;;;;;;1.65;1.30;;;8.40;99.90;;;;;;4993925;28;20027;-59
2023/05/19 02:53:36;;;;;;;2.42;1.27;;;8.30;99.90;;;;;;4993549;28;20026;-55
2023/05/19 02:56:02;;;;;;;3.67;1.75;;;8.30;99.90;;;;;;4993852;28;20037;-53
2023/05/19 02:58:27;;;;;;;2.22;1.55;;;8.30;99.90;;;;;;4993799;28;20478;-43
2023/05/19 03:00:53;;;;;;;1.58;0.98;;;8.30;99.90;;;;;;4993323;28;20145;-47
2023/05/19 03:03:19;;;;;;;2.15;1.17;;;8.30;99.90;;;;;;4993606;28;20033;-49
2023/05/19 03:05:45;;;;;;;3.03;1.40;;;8.30;99.90;;;;;;4993360;28;20034;-47
2023/05/19 03:08:10;;;;;;;3.85;1.40;;;8.30;99.90;;;;;;4992348;28;20466;-45
2023/05/19 03:10:36;;;;;;;1.90;1.17;;;8.30;99.90;;;;;;4993601;28;20037;-45
2023/05/19 03:13:01;;;;;;;2.35;1.33;;;8.30;99.90;;;;;;4993484;28;20359;-46
2023/05/19 03:15:27;;;;;;;2.92;1.38;;;8.30;99.90;;;;;;4992091;28;20506;-42
2023/05/19 03:17:52;;;;;;;4.68;1.02;;;8.20;99.90;;;;;;4991997;28;20033;-44
2023/05/19 03:20:18;;;;;;;6.25;1.77;;;8.20;99.90;;;;;;4992924;28;20056;-43
2023/05/19 03:22:44;;;;;;;1.33;1.08;;;8.10;99.90;;;;;;4993348;28;20019;-44
2023/05/19 03:25:09;;;;;;;1.10;1.00;;;8.10;99.90;;;;;;4993082;28;20033;-52
2023/05/19 03:27:35;;;;;;;1.63;1.42;;;8.10;99.90;;;;;;4993020;28;20049;-43
2023/05/19 03:30:00;;;;;;;2.70;1.75;;;8.00;99.90;;;;;;4993129;28;20026;-51
2023/05/19 03:32:26;;;;;;;4.10;1.52;;;8.10;99.90;;;;;;4993021;28;20026;-49
2023/05/19 03:34:51;;;;;;;1.98;1.67;;;8.00;99.90;;;;;;4992798;28;20034;-44
2023/05/19 03:37:17;;;;;;;2.13;1.67;;;8.00;99.90;;;;;;4992991;28;20472;-43
2023/05/19 03:39:43;;;;;;;4.47;1.58;;;8.00;99.90;;;;;;4992749;28;20068;-52
2023/05/19 03:42:08;;;;;;;1.38;1.13;;;8.00;99.90;;;;;;4992620;28;20413;-48
2023/05/19 03:44:34;;;;;;;3.42;1.70;;;8.00;99.90;;;;;;4992806;28;20034;-49
2023/05/19 03:46:59;;;;;;;3.13;1.73;;;8.10;99.90;;;;;;4992634;28;20105;-49
2023/05/19 03:49:25;;;;;;;1.77;1.38;;;8.10;99.90;;;;;;4992643;28;20545;-49
2023/05/19 03:51:51;;;;;;;2.15;1.75;;;8.10;99.90;;;;;;4992580;28;20027;-44
2023/05/19 03:54:16;;;;;;;2.80;1.60;;;8.10;99.90;;;;;;4992723;28;20030;-48
2023/05/19 03:56:42;;;;;;;3.05;1.35;;;8.10;99.90;;;;;;4992436;28;20022;-48
2023/05/19 03:59:09;;;;;;;2.63;1.52;;;8.10;99.90;;;;;;4992403;28;20087;-47
2023/05/19 04:01:35;;;;;;;1.63;1.48;;;8.10;99.90;;;;;;4992407;28;20070;-49
2023/05/19 04:04:01;;;;;;;1.95;1.17;;;8.10;99.90;;;;;;4992243;28;20046;-47
2023/05/19 04:06:27;;;;;;;4.80;1.88;;;8.10;99.90;;;;;;4992427;28;20497;-51
2023/05/19 04:08:53;;;;;;;4.63;1.98;;;8.20;99.90;;;;;;4992312;28;20049;-52
2023/05/19 04:11:19;;;;;;;2.60;1.67;;;8.10;99.90;;;;;;4992669;28;20370;-51
2023/05/19 04:13:44;;;;;;;3.17;2.28;;;8.20;99.90;;;;;;4992843;28;20421;-50
2023/05/19 04:16:10;;;;;;;2.67;1.92;;;8.20;99.90;;;;;;4990840;28;20066;-43
2023/05/19 04:18:36;;;;;;;2.28;1.58;;;8.10;99.90;;;;;;4991882;28;20112;-43
2023/05/19 04:21:01;;;;;;;2.05;1.50;;;8.10;99.90;;;;;;4991909;28;20117;-43
2023/05/19 04:23:27;;;;;;;7.90;1.23;;;8.10;99.90;;;;;;4992254;28;20514;-51
2023/05/19 04:25:53;;;;;;;2.17;1.60;;;8.10;99.90;;;;;;4990380;28;20497;-49
2023/05/19 04:28:20;;;;;;;7.88;1.48;;;8.20;99.90;;;;;;4991987;28;20034;-47
2023/05/19 04:30:45;;;;;;;1.17;1.08;;;8.20;99.90;;;;;;4995319;28;20022;-46
2023/05/19 04:33:12;;;;;;;8.02;2.03;;;8.30;99.90;;;;;;4991717;28;20030;-44
2023/05/19 04:35:38;;;;;;;3.25;1.30;;;8.30;99.90;;;;;;4992032;28;20054;-48
2023/05/19 04:38:04;;;;;;;7.72;1.10;;;8.30;99.90;;;;;;4991731;28;20474;-52
2023/05/19 04:40:30;;;;;;;1.58;1.15;;;8.40;99.90;;;;;;4991384;28;20093;-54
2023/05/19 04:42:56;;;;;;;5.18;2.38;;;8.40;99.90;;;;;;4991449;28;20061;-50
2023/05/19 04:45:24;;;;;;;1.70;1.27;;;8.40;99.90;;;;;;4991474;28;20065;-48
2023/05/19 04:47:51;;;;;;;1.80;1.08;;;8.40;99.90;;;;;;4991409;28;20421;-49
2023/05/19 04:50:17;;;;;;;4.20;1.95;;;8.50;99.90;;;;;;4991726;28;20023;-44
2023/05/19 04:52:44;;;;;;;1.30;1.20;;;8.60;99.90;;;;;;4991593;28;20406;-58
2023/05/19 04:55:10;;;;;;;1.85;1.27;;;8.70;99.90;;;;;;4991446;28;20109;-54
2023/05/19 04:57:36;;;;;;;4.93;1.33;;;8.70;99.90;;;;;;4991347;28;20456;-47
2023/05/19 05:00:06;;;;;;;1.60;1.27;;;8.60;99.90;;;;;;4991197;28;20034;-42
2023/05/19 05:02:32;;;;;;;;;;;8.50;99.90;;;;;;4991838;28;20052;-48
2023/05/19 05:04:58;;;;;;;1.33;1.23;;;8.50;99.90;;;;;;4991274;28;19906;-47
2023/05/19 05:07:24;;;;;;;3.60;1.73;;;8.60;99.90;;;;;;4991331;28;20532;-46
2023/05/19 05:09:50;;;;;;;8.88;1.80;;;8.50;99.90;;;;;;4991121;28;20084;-43
2023/05/19 05:12:17;;;;;;;1.95;1.08;;;8.50;99.90;;;;;;4991289;28;20026;-46
2023/05/19 05:14:43;;;;;;;2.90;2.35;;;8.60;99.90;;;;;;4991043;28;20034;-44
2023/05/19 05:17:10;;;;;;;1.58;1.17;;;8.70;99.90;;;;;;4991143;28;20018;-46
2023/05/19 05:19:36;;;;;;;7.63;2.05;;;8.80;99.90;;;;;;4991090;28;20034;-47
2023/05/19 05:22:03;;;;;;;11.23;1.50;;;8.90;99.90;;;;;;4990975;28;20026;-45
2023/05/19 05:24:29;;;;;;;1.45;1.17;;;8.90;99.90;;;;;;4991036;28;20041;-43
2023/05/19 05:26:54;;;;;;;1.55;1.42;;;9.10;99.90;;;;;;4991244;28;20026;-51
2023/05/19 05:29:20;;;;;;;2.47;1.15;;;9.10;99.90;;;;;;4991013;28;20037;-47
2023/05/19 05:31:46;;;;;;;3.78;1.20;;;9.30;99.90;;;;;;4991267;28;20026;-47
2023/05/19 05:34:12;;;;;;;4.13;2.13;;;9.40;99.90;;;;;;4990842;28;20066;-49
2023/05/19 05:36:37;;;;;;;2.05;1.38;;;9.50;99.90;;;;;;4991045;28;20035;-47
2023/05/19 05:39:04;;;;;;;4.82;1.75;;;9.70;99.90;;;;;;4993052;28;20029;-49
2023/05/19 05:41:34;;;;;;;3.20;1.77;;;9.80;99.90;;;;;;4994657;28;20069;-49
2023/05/19 05:44:00;;;;;;;;;;;10.00;99.90;;;;;;4995423;28;20034;-54
2023/05/19 05:46:25;;;;;;;6.00;2.25;;;10.20;99.90;;;;;;4994883;28;20004;-43
2023/05/19 05:48:51;;;;;;;5.32;2.13;;;10.30;99.90;;;;;;4995219;28;20469;-48
2023/05/19 05:51:19;;;;;;;3.92;1.48;;;10.50;99.90;;;;;;4994767;28;20459;-47
2023/05/19 05:53:53;;;;;;;4.18;2.00;;;10.70;99.90;;;;;;4994829;28;20522;-46
2023/05/19 05:56:19;;;;;;;2.47;1.55;;;10.90;99.90;;;;;;4994591;28;20030;-48
2023/05/19 05:58:45;;;;;;;3.95;1.70;;;11.20;99.90;;;;;;4994725;28;20085;-42
2023/05/19 06:01:11;;;;;;;3.33;1.38;;;11.50;99.90;;;;;;4994661;28;20042;-51
2023/05/19 06:03:43;;;;;;;3.72;1.70;;;12.00;99.90;;;;;;4994565;28;20048;-43
2023/05/19 06:06:09;;;;;;;2.80;1.73;;;12.50;99.90;;;;;;4994718;28;20042;-49
2023/05/19 06:08:35;;;;;;;9.57;3.42;;;13.10;99.90;;;;;;4994409;28;20069;-49
2023/05/19 06:11:06;;;;;;;1.83;1.17;;;13.50;99.90;;;;;;4994453;28;20034;-44
2023/05/19 06:13:33;;;;;;;3.22;1.75;;;13.70;99.90;;;;;;4994462;28;20030;-53
2023/05/19 06:15:58;;;;;;;4.82;1.58;;;13.80;99.90;;;;;;4994530;28;20092;-43
2023/05/19 06:18:24;;;;;;;2.42;1.50;;;13.90;99.90;;;;;;4994255;28;20429;-46
2023/05/19 06:20:50;;;;;;;3.08;1.63;;;13.70;99.90;;;;;;4994104;28;20041;-48
2023/05/19 06:23:15;;;;;;;6.07;2.10;;;13.70;99.90;;;;;;4993015;28;20049;-43
2023/05/19 06:25:41;;;;;;;2.83;1.30;;;13.40;99.90;;;;;;4993957;28;20050;-43
2023/05/19 06:28:07;;;;;;;3.35;1.88;;;13.30;99.90;;;;;;4994223;28;20490;-41
2023/05/19 06:30:32;;;;;;;6.30;1.98;;;13.30;99.90;;;;;;4994185;28;20026;-42
2023/05/19 06:32:58;;;;;;;2.60;1.80;;;13.30;99.90;;;;;;4994072;28;20018;-42
2023/05/19 06:35:23;;;;;;;2.88;1.70;;;13.40;99.90;;;;;;4994129;28;20026;-42
2023/05/19 06:37:49;;;;;;;8.30;1.55;;;13.40;99.90;;;;;;4993945;28;20037;-42
2023/05/19 06:40:15;;;;;;;2.30;1.30;;;13.60;99.90;;;;;;4993765;28;20085;-46
2023/05/19 06:42:40;;;;;;;8.57;2.10;;;13.80;99.90;;;;;;4993714;28;20078;-42
2023/05/19 06:45:06;;;;;;;8.63;1.92;;;14.10;99.90;;;;;;4993830;28;20101;-50
2023/05/19 06:47:32;;;;;;;3.83;1.30;;;14.20;99.90;;;;;;5000867;28;20073;-42
2023/05/19 06:49:57;;;;;;;4.22;1.67;;;14.20;99.90;;;;;;4993670;28;20022;-45
2023/05/19 06:52:23;;;;;;;2.45;1.48;;;14.30;99.90;;;;;;4993515;28;20346;-46
2023/05/19 06:54:49;;;;;;;2.15;1.13;;;14.40;99.90;;;;;;4993484;28;20076;-48
2023/05/19 06:57:15;;;;;;;5.38;1.73;;;14.40;99.90;;;;;;4993649;28;20030;-42
2023/05/19 06:59:42;;;;;;;5.55;1.30;;;14.50;99.90;;;;;;4993355;28;20038;-52
2023/05/19 07:02:08;;;;;;;2.33;1.95;;;14.70;99.90;;;;;;4993445;28;20026;-43
2023/05/19 07:04:34;;;;;;;4.43;1.83;;;14.90;99.90;;;;;;4992472;28;20517;-43
2023/05/19 07:07:00;;;;;;;2.03;1.05;;;15.10;99.90;;;;;;4994046;28;20022;-43
2023/05/19 07:09:25;;;;;;;2.10;1.08;;;15.20;99.90;;;;;;4995210;28;20022;-43
2023/05/19 07:11:51;;;;;;;4.53;1.33;;;15.20;99.90;;;;;;4997982;28;20080;-47
2023/05/19 07:14:16;;;;;;;3.45;1.20;;;15.10;99.90;;;;;;4995079;28;20026;-47
2023/05/19 07:16:42;;;;;;;5.90;1.80;;;15.00;99.90;;;;;;5005156;28;20077;-44
2023/05/19 07:19:08;;;;;;;3.85;1.80;;;14.90;99.90;;;;;;5008341;28;20033;-51
2023/05/19 07:21:33;;;;;;;4.43;2.00;;;14.90;99.90;;;;;;5010960;28;20030;-51
2023/05/19 07:23:59;;;;;;;2.20;1.40;;;14.90;99.90;;;;;;4994199;28;20038;-48
2023/05/19 07:26:25;;;;;;;7.80;2.28;;;14.90;99.90;;;;;;4993357;28;20033;-49
2023/05/19 07:28:51;;;;;;;4.13;1.70;;;15.00;99.90;;;;;;4993206;28;20033;-50
2023/05/19 07:31:17;;;;;;;2.28;1.33;;;15.10;99.90;;;;;;4992929;28;20030;-50
2023/05/19 07:33:42;;;;;;;1.63;1.15;;;15.00;99.90;;;;;;4992962;28;20018;-50
2023/05/19 07:36:08;;;;;;;2.83;1.52;;;15.10;99.90;;;;;;4992805;28;20026;-50
2023/05/19 07:38:34;;;;;;;4.45;1.38;;;14.90;99.90;;;;;;4992823;28;20494;-45
2023/05/19 07:41:01;;;;;;;11.15;1.70;;;14.90;99.90;;;;;;4992887;28;20034;-45
2023/05/19 07:43:26;;;;;;;3.58;1.50;;;15.00;99.90;;;;;;4992549;28;20046;-55
2023/05/19 07:45:52;;;;;;;5.38;1.30;;;14.90;99.90;;;;;;4996937;28;20095;-45
2023/05/19 07:48:21;;;;;;;4.85;2.17;;;14.90;99.90;;;;;;4999569;28;20392;-48
2023/05/19 07:50:51;;;;;;;6.32;1.77;;;15.10;99.90;;;;;;4992540;28;20038;-47
2023/05/19 07:53:18;;;;;;;6.32;1.40;;;15.40;99.90;;;;;;4984754;28;20041;-44
2023/05/19 07:55:43;;;;;;;4.30;1.40;;;15.50;99.90;;;;;;4990283;28;20042;-44
2023/05/19 07:58:09;;;;;;;9.20;2.15;;;15.60;99.90;;;;;;4992512;28;20030;-50
2023/05/19 08:00:35;;;;;;;4.93;2.10;;;15.80;99.90;;;;;;4992181;28;20034;-46
2023/05/19 08:03:01;;;;;;;4.97;1.67;;;15.90;99.90;;;;;;4992027;28;20117;-47
2023/05/19 08:05:28;;;;;;;6.60;1.27;;;16.00;99.90;;;;;;4995262;28;20074;-49
2023/05/19 08:07:55;;;;;;;2.97;1.67;;;16.00;99.90;;;;;;4992115;28;20046;-50
2023/05/19 08:10:20;;;;;;;2.55;1.35;;;16.00;99.90;;;;;;5004521;28;20477;-45
2023/05/19 08:12:46;;;;;;;2.88;0.98;;;16.10;99.90;;;;;;4995799;28;20034;-45
2023/05/19 08:15:12;;;;;;;3.72;1.25;;;16.30;99.90;;;;;;4994046;28;20038;-51
2023/05/19 08:17:37;;;;;;;2.42;1.90;;;16.30;99.90;;;;;;4991802;28;20038;-50
2023/05/19 08:20:08;;;;;;;3.25;1.70;;;16.30;99.90;;;;;;4991767;28;20048;-48
2023/05/19 08:22:34;;;;;;;1.92;1.10;;;16.30;99.90;;;;;;4992330;28;20414;-50
2023/05/19 08:25:00;;;;;;;3.67;1.80;;;16.40;99.90;;;;;;4985959;28;20497;-47
2023/05/19 08:27:26;;;;;;;6.22;1.63;;;16.50;99.90;;;;;;4999110;28;20022;-52
2023/05/19 08:29:51;;;;;;;3.53;1.58;;;16.60;99.90;;;;;;4998641;28;20089;-45
2023/05/19 08:32:17;;;;;;;3.35;1.38;;;16.70;99.90;;;;;;4996581;28;20026;-43
2023/05/19 08:34:43;;;;;;;5.15;1.30;;;16.80;99.90;;;;;;4991500;28;20025;-43
2023/05/19 08:37:10;;;;;;;4.07;1.40;;;16.90;99.90;;;;;;4991726;28;20076;-44
2023/05/19 08:39:36;;;;;;;3.58;1.67;;;16.80;99.90;;;;;;4991578;28;20038;-48
2023/05/19 08:42:02;;;;;;;3.88;1.73;;;16.90;99.90;;;;;;4991422;28;20405;-57
2023/05/19 08:44:29;;;;;;;1.63;1.23;;;17.10;99.90;;;;;;4991501;28;20102;-40
2023/05/19 08:46:55;;;;;;;3.90;1.42;;;17.20;99.90;;;;;;4999085;28;20555;-49
2023/05/19 08:49:29;;;;;;;2.22;1.40;;;17.20;99.90;;;;;;4991590;28;20076;-44
2023/05/19 08:52:04;;;;;;;3.85;1.40;;;17.40;99.90;;;;;;4991928;28;20026;-54
2023/05/19 08:54:45;;;;;;;2.08;1.10;;;17.70;99.90;;;;;;4991326;28;20493;-52
2023/05/19 08:57:12;;;;;;;2.85;1.58;;;18.20;99.90;;;;;;4992867;28;20044;-46
2023/05/19 08:59:39;;;;;;;3.33;1.20;;;18.50;99.90;;;;;;4996803;28;20024;-46
2023/05/19 09:02:07;;;;;;;1.92;1.25;;;18.90;99.70;;;;;;4978131;28;20026;-47
2023/05/19 09:04:33;;;;;;;2.15;1.15;;;19.10;99.90;;;;;;4994804;28;20071;-43
2023/05/19 09:07:02;;;;;;;3.63;0.82;;;19.00;97.50;;;;;;4992690;28;20452;-45
2023/05/19 09:09:29;;;;;;;1.38;0.88;;;19.00;94.40;;;;;;4990322;28;20067;-43
2023/05/19 09:11:54;;;;;;;1.77;1.10;;;18.80;93.10;;;;;;4991221;28;20030;-48
2023/05/19 09:14:21;;;;;;;3.78;0.80;;;18.70;98.00;;;;;;4990344;28;20031;-44
2023/05/19 09:16:49;;;;;;;1.08;0.80;;;18.60;93.50;;;;;;4991090;28;20019;-45
2023/05/19 09:19:15;;;;;;;0.95;0.60;;;18.60;94.00;;;;;;4991392;28;20102;-45
2023/05/19 09:21:41;;;;;;;1.70;0.77;;;18.40;92.10;;;;;;4990942;28;20030;-41
2023/05/19 09:24:08;;;;;;;2.00;1.02;;;18.40;93.80;;;;;;4991069;28;20030;-42
2023/05/19 09:26:41;;;;;;;3.85;0.90;;;18.40;97.00;;;;;;4991124;28;20030;-41
2023/05/19 09:29:15;;;;;;;2.50;0.80;;;18.40;93.00;;;;;;4990997;28;20390;-43
2023/05/19 09:32:04;;;;;;;3.50;0.90;;;18.30;91.50;;;;;;4991423;28;20124;-50
2023/05/19 09:34:29;;;;;;;2.15;1.15;;;18.50;94.40;;;;;;4990933;28;20390;-45
2023/05/19 09:36:56;;;;;;;0.98;0.70;;;18.50;94.20;;;;;;4991053;28;20031;-50
2023/05/19 09:39:23;;;;;;;1.92;0.70;;;18.50;94.10;;;;;;4990924;28;20105;-48
2023/05/19 09:41:53;;;;;;;1.13;0.68;;;18.60;94.20;;;;;;5002389;28;20523;-48
2023/05/19 09:44:19;;;;;;;3.35;1.05;;;18.40;90.50;;;;;;5022461;28;20065;-46
2023/05/19 09:46:52;;;;;;;1.42;0.80;;;18.40;88.30;;;;;;5000325;28;20477;-47
2023/05/19 09:49:22;;;;;;;1.25;0.90;;;18.40;88.40;;;;;;4995992;28;20390;-42
2023/05/19 09:51:50;;;;;;;4.28;1.10;;;18.20;87.50;;;;;;4990804;28;20030;-55
2023/05/19 09:54:16;;;;;;;1.08;0.60;;;18.10;90.60;;;;;;4990890;28;20096;-44
2023/05/19 09:56:41;;;;;;;2.10;0.80;;;18.30;94.10;;;;;;4990913;28;20392;-42
2023/05/19 09:59:07;;;;;;;3.35;0.95;;;18.30;92.80;;;;;;4992008;28;20033;-41
2023/05/19 10:01:35;;;;;;;2.05;0.95;;;18.20;90.50;;;;;;5004809;28;20038;-44
2023/05/19 10:04:03;;;;;;;2.47;0.60;;;18.20;86.40;;;;;;5004494;28;20109;-46
2023/05/19 10:06:29;;;;;;;2.05;1.23;;;18.00;92.50;;;;;;5010090;28;20026;-43
2023/05/19 10:08:55;;;;;;;1.83;1.00;;;18.00;89.00;;;;;;5010314;28;20466;-43
2023/05/19 10:11:22;;;;;;;1.95;0.90;;;18.10;93.20;;;;;;5010573;28;20030;-54
2023/05/19 10:13:50;;;;;;;2.25;1.00;;;18.10;87.90;;;;;;5010190;28;20076;-48
2023/05/19 10:16:17;;;;;;;1.48;0.88;;;18.20;85.30;;;;;;5009038;28;20105;-56
2023/05/19 10:18:43;;;;;;;2.60;0.88;;;18.30;82.30;;;;;;5009410;28;20030;-50
2023/05/19 10:21:09;;;;;;;0.95;0.70;;;18.50;90.80;;;;;;4992110;28;20500;-47
2023/05/19 10:23:35;;;;;;;1.48;0.90;;;18.50;86.40;;;;;;4990672;28;20107;-48
2023/05/19 10:26:03;;;;;;;1.95;1.08;;;18.60;90.80;;;;;;4993178;28;20034;-49
2023/05/19 10:28:41;;;;;;;1.73;1.20;;;18.60;82.20;;;;;;4994128;28;20046;-42
2023/05/19 10:31:12;;;;;;;3.60;1.10;;;18.40;79.60;;;;;;4993805;28;20030;-45
2023/05/19 10:33:37;;;;;;;1.92;1.00;;;18.60;85.10;;;;;;5002325;28;20125;-48
2023/05/19 10:36:23;;;;;;;1.27;0.77;;;18.50;83.20;;;;;;5013664;28;20096;-47
2023/05/19 10:39:15;;;;;;;2.47;1.13;;;18.60;86.40;;;;;;5013681;28;20030;-54
2023/05/19 10:41:52;;;;;;;1.27;0.93;;;18.70;91.50;;;;;;5013108;28;20049;-46
2023/05/19 10:44:24;;;;;;;1.35;1.00;;;18.60;87.30;;;;;;5013213;28;20478;-48
2023/05/19 10:46:49;;;;;;;5.57;1.35;;;18.30;83.80;;;;;;5013209;28;20084;-44
2023/05/19 10:49:22;;;;;;;7.93;1.13;;;18.30;82.20;;;;;;5001830;28;20030;-42
2023/05/19 10:51:47;;;;;;;1.55;0.90;;;17.80;82.70;;;;;;4993826;28;20022;-47
2023/05/19 10:54:15;;;;;;;2.35;1.13;;;17.70;83.60;;;;;;4993543;28;20474;-44
2023/05/19 10:56:46;;;;;;;1.38;0.80;;;18.00;91.30;;;;;;4994137;28;20097;-51
2023/05/19 10:59:34;;;;;;;1.10;0.70;;;18.10;90.10;;;;;;4990271;28;20018;-47
2023/05/19 11:02:04;;;;;;;2.05;1.15;;;18.10;89.10;;;;;;4997586;28;20121;-44
2023/05/19 11:04:52;;;;;;;4.55;1.00;;;18.20;90.20;;;;;;4990233;28;20030;-43
2023/05/19 11:07:23;;;;;;;4.10;0.90;;;18.30;89.80;;;;;;4997471;28;20036;-47
2023/05/19 11:09:52;;;;;;;3.03;1.00;;;18.40;91.00;;;;;;5012884;28;20278;-48
2023/05/19 11:12:22;;;;;;;3.15;0.80;;;18.60;90.10;;;;;;4985838;28;20445;-56
2023/05/19 11:14:51;;;;;;;2.45;1.20;;;18.50;85.50;;;;;;4993301;28;20065;-43
2023/05/19 11:17:20;;;;;;;1.08;0.70;;;18.60;86.90;;;;;;4992910;28;20023;-50
2023/05/19 11:19:53;;;;;;;2.20;1.02;;;18.70;87.30;;;;;;4993014;28;20121;-41
2023/05/19 11:22:25;;;;;;;2.40;1.10;;;18.90;89.40;;;;;;4992793;28;20041;-46
2023/05/19 11:24:54;;;;;;;1.17;0.70;;;18.90;85.10;;;;;;4992977;28;20018;-44
2023/05/19 11:27:25;;;;;;;4.00;0.97;;;19.10;85.30;;;;;;4992910;28;20486;-47
2023/05/19 11:29:51;;;;;;;3.35;1.48;;;19.10;81.70;;;;;;4992401;28;20129;-43
2023/05/19 11:32:18;;;;;;;1.02;0.80;;;19.50;90.80;;;;;;4990091;28;20034;-47
2023/05/19 11:34:47;;;;;;;1.77;1.00;;;19.80;89.00;;;;;;4993014;28;20019;-44
2023/05/19 11:37:12;;;;;;;1.55;1.23;;;20.00;86.70;;;;;;4991837;28;20062;-54
2023/05/19 11:39:39;;;;;;;4.85;1.25;;;20.20;84.00;;;;;;4992460;28;20049;-51
2023/05/19 11:42:05;;;;;;;2.78;0.82;;;20.30;85.70;;;;;;4992545;28;20140;-51
2023/05/19 11:44:31;;;;;;;1.65;0.65;;;20.40;83.40;;;;;;4992359;28;20430;-49
2023/05/19 11:46:59;;;;;;;1.98;0.80;;;20.30;80.50;;;;;;4992871;28;20101;-44
2023/05/19 11:49:28;;;;;;;1.88;0.80;;;20.50;85.90;;;;;;4992356;28;20073;-53
2023/05/19 11:51:53;;;;;;;0.93;0.50;;;20.70;78.40;;;;;;4992509;28;20026;-42
2023/05/19 11:54:19;;;;;;;0.70;0.52;;;20.70;71.70;;;;;;4992213;28;20117;-42
2023/05/19 11:56:46;;;;;;;1.55;0.80;;;20.20;70.90;;;;;;4992282;28;20050;-42
2023/05/19 11:59:11;;;;;;;1.75;0.90;;;19.90;70.10;;;;;;4988855;28;20038;-48
2023/05/19 12:01:37;;;;;;;1.02;0.60;;;19.70;72.50;;;;;;4992401;28;20031;-41
2023/05/19 12:04:08;;;;;;;1.30;0.80;;;19.60;74.30;;;;;;4989868;28;20038;-42
2023/05/19 12:06:33;;;;;;;0.68;0.55;;;19.40;74.80;;;;;;4988859;28;20026;-38
2023/05/19 12:08:59;;;;;;;2.30;0.60;;;19.30;74.10;;;;;;4998853;28;20093;-37
2023/05/19 12:11:27;;;;;;;4.53;0.93;;;19.30;74.30;;;;;;4998758;28;20088;-39
2023/05/19 12:13:57;;;;;;;3.13;1.27;;;19.30;76.90;;;;;;5002489;28;20041;-41
2023/05/19 12:16:23;;;;;;;8.00;0.82;;;19.20;73.30;;;;;;4993172;28;20054;-38
2023/05/19 12:18:48;;;;;;;1.40;0.80;;;19.10;73.00;;;;;;4999765;28;20090;-38
2023/05/19 12:21:14;;;;;;;3.70;0.82;;;18.90;73.80;;;;;;4991915;28;20155;-38
2023/05/19 12:23:41;;;;;;;2.83;1.08;;;19.00;73.40;;;;;;4999375;28;20037;-41
2023/05/19 12:26:07;;;;;;;1.35;0.73;;;18.90;75.90;;;;;;4992295;28;20023;-38
2023/05/19 12:28:32;;;;;;;1.52;0.70;;;19.00;76.90;;;;;;4991886;28;20038;-41
2023/05/19 12:30:58;;;;;;;2.22;1.10;;;18.90;74.70;;;;;;4991718;28;20022;-37
2023/05/19 12:33:25;;;;;;;1.50;0.88;;;18.80;78.10;;;;;;4991647;28;20026;-37
2023/05/19 12:35:50;;;;;;;1.17;0.75;;;18.70;79.50;;;;;;4991788;28;20042;-37
2023/05/19 12:38:18;;;;;;;1.88;1.00;;;18.60;76.10;;;;;;4991660;28;20052;-38
2023/05/19 12:40:43;;;;;;;2.40;0.93;;;18.50;76.80;;;;;;4991605;28;20504;-38
2023/05/19 12:43:20;;;;;;;1.40;0.90;;;18.40;77.50;;;;;;4991368;28;20042;-38
2023/05/19 12:45:46;;;;;;;2.30;1.00;;;18.30;77.90;;;;;;4991587;28;20053;-43
2023/05/19 12:48:14;;;;;;;2.50;1.15;;;18.30;81.30;;;;;;4991280;28;20014;-37
2023/05/19 12:50:40;;;;;;;2.50;1.20;;;18.30;80.50;;;;;;4991603;28;20037;-40
2023/05/19 12:53:10;;;;;;;2.55;1.08;;;18.30;79.50;;;;;;4991387;28;20026;-39
2023/05/19 12:55:43;;;;;;;5.65;1.38;;;18.40;77.60;;;;;;4991206;28;20362;-40